createdAt,value
2018-06-27T00:01:39.297Z,7.93
2018-06-27T00:04:08.137Z,8.00
2018-06-27T00:06:37.250Z,7.60
2018-06-27T00:09:08.124Z,8.37
2018-06-27T00:11:36.947Z,8.47
2018-06-27T00:14:06.340Z,7.60
2018-06-27T00:16:35.166Z,7.23
2018-06-27T00:19:04.038Z,7.67
2018-06-27T00:21:33.223Z,8.07
2018-06-27T00:24:02.056Z,8.23
2018-06-27T00:26:31.459Z,8.87
2018-06-27T00:29:00.915Z,8.13
2018-06-27T00:31:29.963Z,7.90
2018-06-27T00:33:59.248Z,8.37
2018-06-27T00:36:28.794Z,8.70
2018-06-27T00:38:57.569Z,9.87
2018-06-27T00:41:27.044Z,8.53
2018-06-27T00:43:56.038Z,8.90
2018-06-27T00:46:25.359Z,8.80
2018-06-27T00:48:54.235Z,8.20
2018-06-27T00:51:23.354Z,9.43
2018-06-27T00:53:57.421Z,9.40
2018-06-27T00:56:26.594Z,9.03
2018-06-27T00:58:55.420Z,8.90
2018-06-27T01:01:24.531Z,9.23
2018-06-27T01:03:54.166Z,9.37
2018-06-27T01:06:23.214Z,9.57
2018-06-27T01:08:52.274Z,9.00
2018-06-27T01:11:21.162Z,9.30
2018-06-27T01:13:49.954Z,8.80
2018-06-27T01:16:19.016Z,9.53
2018-06-27T01:18:48.052Z,10.53
2018-06-27T01:21:17.140Z,9.87
2018-06-27T01:23:46.014Z,9.97
2018-06-27T01:26:15.662Z,9.30
2018-06-27T01:28:45.366Z,8.90
2018-06-27T01:31:14.814Z,9.07
2018-06-27T01:33:43.995Z,9.73
2018-06-27T01:36:13.065Z,10.80
2018-06-27T01:38:42.107Z,9.30
2018-06-27T01:41:11.463Z,9.80
2018-06-27T01:43:40.271Z,11.33
2018-06-27T01:46:09.386Z,9.90
2018-06-27T01:48:38.588Z,8.53
2018-06-27T01:51:07.735Z,8.10
2018-06-27T01:53:38.139Z,9.77
2018-06-27T01:56:08.906Z,9.17
2018-06-27T01:58:38.111Z,9.70
2018-06-27T02:01:07.040Z,9.90
2018-06-27T02:03:35.814Z,10.17
2018-06-27T02:06:04.631Z,9.17
2018-06-27T02:08:33.406Z,10.40
2018-06-27T02:11:02.185Z,8.60
2018-06-27T02:13:31.233Z,9.87
2018-06-27T02:16:00.118Z,9.57
2018-06-27T02:18:29.175Z,9.93
2018-06-27T02:20:57.982Z,9.07
2018-06-27T02:23:26.824Z,10.90
2018-06-27T02:25:55.954Z,9.27
2018-06-27T02:28:25.324Z,9.73
2018-06-27T02:30:54.104Z,10.17
2018-06-27T02:33:29.752Z,9.70
2018-06-27T02:35:59.495Z,10.10
2018-06-27T02:38:29.023Z,9.70
2018-06-27T02:40:58.102Z,8.80
2018-06-27T02:43:27.267Z,11.37
2018-06-27T02:45:56.254Z,10.40
2018-06-27T02:48:26.018Z,10.77
2018-06-27T02:50:54.824Z,11.77
2018-06-27T02:53:24.618Z,11.50
2018-06-27T02:55:53.832Z,10.03
2018-06-27T02:58:22.907Z,9.30
2018-06-27T03:00:52.017Z,9.47
2018-06-27T03:03:20.983Z,10.10
2018-06-27T03:05:49.839Z,10.40
2018-06-27T03:08:18.643Z,10.30
2018-06-27T03:10:48.142Z,10.73
2018-06-27T03:13:17.591Z,11.40
2018-06-27T03:15:46.362Z,9.93
2018-06-27T03:18:15.159Z,11.70
2018-06-27T03:20:43.959Z,10.40
2018-06-27T03:23:12.800Z,13.23
2018-06-27T03:25:42.259Z,11.93
2018-06-27T03:28:11.691Z,10.60
2018-06-27T03:30:40.496Z,11.17
2018-06-27T03:33:09.490Z,12.37
2018-06-27T03:35:38.545Z,12.13
2018-06-27T03:38:07.602Z,11.93
2018-06-27T03:40:36.405Z,12.87
2018-06-27T03:43:05.365Z,13.13
2018-06-27T03:45:34.529Z,13.43
2018-06-27T03:48:04.163Z,13.90
2018-06-27T03:50:33.028Z,13.67
2018-06-27T03:53:02.949Z,12.30
2018-06-27T03:55:32.325Z,14.13
2018-06-27T03:58:01.468Z,13.40
2018-06-27T04:00:30.852Z,13.90
2018-06-27T04:03:00.179Z,14.80
2018-06-27T04:05:29.399Z,13.37
2018-06-27T04:07:58.245Z,13.77
2018-06-27T04:10:27.774Z,13.50
2018-06-27T04:12:57.248Z,15.00
2018-06-27T04:15:26.865Z,12.87
2018-06-27T04:17:55.761Z,14.23
2018-06-27T04:20:24.971Z,13.30
2018-06-27T04:22:58.850Z,14.00
2018-06-27T04:25:27.670Z,13.07
2018-06-27T04:27:57.263Z,15.37
2018-06-27T04:30:26.600Z,15.43
2018-06-27T04:32:55.729Z,13.80
2018-06-27T04:35:24.701Z,14.80
2018-06-27T04:37:54.135Z,14.10
2018-06-27T04:40:23.311Z,15.37
2018-06-27T04:42:52.491Z,14.80
2018-06-27T04:45:21.668Z,14.70
2018-06-27T04:47:50.819Z,15.10
2018-06-27T04:50:19.660Z,14.00
2018-06-27T04:52:49.410Z,13.87
2018-06-27T04:55:18.224Z,13.83
2018-06-27T04:57:47.173Z,13.90
2018-06-27T05:00:16.446Z,13.77
2018-06-27T05:02:45.792Z,14.57
2018-06-27T05:05:14.927Z,13.87
2018-06-27T05:07:43.771Z,13.33
2018-06-27T05:10:12.587Z,13.07
2018-06-27T05:12:41.553Z,13.87
2018-06-27T05:15:10.529Z,14.30
2018-06-27T05:17:39.660Z,14.90
2018-06-27T05:20:09.080Z,14.63
2018-06-27T05:22:38.508Z,14.50
2018-06-27T05:25:07.432Z,15.37
2018-06-27T05:27:37.135Z,13.60
2018-06-27T05:30:05.933Z,14.70
2018-06-27T05:32:35.429Z,14.83
2018-06-27T05:35:04.972Z,13.37
2018-06-27T05:37:34.404Z,13.67
2018-06-27T05:40:03.286Z,13.87
2018-06-27T05:42:32.446Z,14.53
2018-06-27T05:45:01.316Z,15.93
2018-06-27T05:47:30.840Z,14.17
2018-06-27T05:50:00.571Z,14.50
2018-06-27T05:52:30.968Z,16.07
2018-06-27T05:55:05.291Z,14.00
2018-06-27T05:57:34.126Z,14.87
2018-06-27T06:00:03.684Z,15.17
2018-06-27T06:02:32.510Z,15.97
2018-06-27T06:05:01.602Z,15.20
2018-06-27T06:07:30.623Z,15.87
2018-06-27T06:10:00.056Z,15.60
2018-06-27T06:12:29.098Z,15.67
2018-06-27T06:14:58.600Z,15.87
2018-06-27T06:17:28.111Z,15.70
2018-06-27T06:19:57.113Z,14.87
2018-06-27T06:22:26.866Z,15.63
2018-06-27T06:24:55.679Z,14.70
2018-06-27T06:27:24.454Z,15.17
2018-06-27T06:29:53.633Z,15.00
2018-06-27T06:32:22.413Z,15.63
2018-06-27T06:34:51.255Z,16.60
2018-06-27T06:37:20.466Z,15.80
2018-06-27T06:39:49.484Z,14.77
2018-06-27T06:42:18.342Z,15.07
2018-06-27T06:44:47.509Z,14.43
2018-06-27T06:47:16.633Z,15.47
2018-06-27T06:49:46.100Z,15.23
2018-06-27T06:52:15.305Z,14.73
2018-06-27T06:54:44.106Z,14.53
2018-06-27T06:57:13.004Z,14.50
2018-06-27T06:59:41.851Z,12.90
2018-06-27T07:02:11.030Z,14.50
2018-06-27T07:04:40.141Z,15.60
2018-06-27T07:07:08.925Z,14.87
2018-06-27T07:09:38.575Z,15.57
2018-06-27T07:12:08.079Z,16.80
2018-06-27T07:14:36.880Z,13.13
2018-06-27T07:17:05.703Z,12.50
2018-06-27T07:19:35.075Z,13.57
2018-06-27T07:22:03.936Z,13.57
2018-06-27T07:24:33.183Z,13.40
2018-06-27T07:27:02.342Z,14.50
2018-06-27T07:29:31.240Z,13.70
2018-06-27T07:32:00.031Z,14.10
2018-06-27T07:34:28.913Z,13.57
2018-06-27T07:36:58.467Z,13.70
2018-06-27T07:39:27.293Z,14.33
2018-06-27T07:41:56.451Z,14.40
2018-06-27T07:44:25.619Z,13.20
2018-06-27T07:46:55.603Z,14.43
2018-06-27T07:49:25.045Z,15.10
2018-06-27T07:51:54.065Z,14.23
2018-06-27T07:54:23.157Z,16.00
2018-06-27T07:56:51.979Z,14.13
2018-06-27T07:59:21.196Z,13.47
2018-06-27T08:01:50.091Z,13.73
2018-06-27T08:04:18.930Z,12.77
2018-06-27T08:06:48.249Z,13.57
2018-06-27T08:09:17.419Z,13.43
2018-06-27T08:11:46.405Z,11.77
2018-06-27T08:14:15.821Z,13.17
2018-06-27T08:16:45.250Z,13.10
2018-06-27T08:19:14.118Z,13.50
2018-06-27T08:21:42.977Z,13.30
2018-06-27T08:24:12.255Z,13.77
2018-06-27T08:26:41.117Z,13.27
2018-06-27T08:29:10.730Z,14.80
2018-06-27T08:31:40.275Z,13.60
2018-06-27T08:34:09.816Z,14.23
2018-06-27T08:36:39.337Z,13.63
2018-06-27T08:39:09.440Z,12.87
2018-06-27T08:41:39.245Z,14.17
2018-06-27T08:44:08.245Z,14.77
2018-06-27T08:46:37.079Z,15.00
2018-06-27T08:49:06.252Z,14.60
2018-06-27T08:51:35.366Z,16.40
2018-06-27T08:54:05.199Z,17.30
2018-06-27T08:56:34.042Z,15.47
2018-06-27T08:59:03.266Z,18.03
2018-06-27T09:01:32.665Z,16.77
2018-06-27T09:04:02.143Z,16.73
2018-06-27T09:06:30.967Z,15.07
2018-06-27T09:09:00.195Z,14.87
2018-06-27T09:11:29.174Z,15.47
2018-06-27T09:13:58.769Z,17.97
2018-06-27T09:16:28.302Z,16.60
2018-06-27T09:18:57.749Z,15.37
2018-06-27T09:21:26.838Z,16.93
2018-06-27T09:23:56.390Z,15.10
2018-06-27T09:26:26.121Z,14.67
2018-06-27T09:28:55.290Z,15.67
2018-06-27T09:31:24.128Z,15.43
2018-06-27T09:33:52.928Z,16.07
2018-06-27T09:36:22.151Z,16.13
2018-06-27T09:38:50.979Z,14.73
2018-06-27T09:41:20.058Z,17.20
2018-06-27T09:43:49.594Z,14.63
2018-06-27T09:46:18.844Z,14.17
2018-06-27T09:48:47.672Z,15.43
2018-06-27T09:51:16.848Z,15.27
2018-06-27T09:53:45.706Z,14.87
2018-06-27T09:56:15.104Z,14.33
2018-06-27T09:58:44.163Z,14.87
2018-06-27T10:01:13.620Z,14.50
2018-06-27T10:03:43.060Z,13.10
2018-06-27T10:06:12.778Z,14.33
2018-06-27T10:08:42.123Z,15.63
2018-06-27T10:11:11.083Z,14.80
2018-06-27T10:13:40.143Z,12.50
2018-06-27T10:16:08.969Z,14.63
2018-06-27T10:18:38.292Z,14.60
2018-06-27T10:21:07.233Z,14.97
2018-06-27T10:23:36.280Z,15.87
2018-06-27T10:26:06.019Z,14.67
2018-06-27T10:28:37.008Z,15.53
2018-06-27T10:31:06.071Z,14.63
2018-06-27T10:33:35.557Z,14.43
2018-06-27T10:36:04.816Z,15.20
2018-06-27T10:38:34.234Z,15.23
2018-06-27T10:41:03.409Z,14.20
2018-06-27T10:43:32.293Z,14.23
2018-06-27T10:46:01.079Z,15.17
2018-06-27T10:48:30.292Z,14.90
2018-06-27T10:50:59.419Z,13.10
2018-06-27T10:53:28.644Z,15.60
2018-06-27T10:55:57.497Z,14.00
2018-06-27T10:58:26.887Z,14.40
2018-06-27T11:00:55.744Z,13.73
2018-06-27T11:03:24.569Z,14.70
2018-06-27T11:05:53.503Z,13.63
2018-06-27T11:08:22.575Z,14.27
2018-06-27T11:10:51.746Z,12.97
2018-06-27T11:13:21.302Z,13.40
2018-06-27T11:15:50.715Z,15.07
2018-06-27T11:18:19.781Z,15.10
2018-06-27T11:20:49.149Z,14.40
2018-06-27T11:23:18.285Z,14.77
2018-06-27T11:25:47.114Z,16.57
2018-06-27T11:28:17.246Z,15.20
2018-06-27T11:30:46.900Z,14.77
2018-06-27T11:33:15.809Z,14.57
2018-06-27T11:35:44.793Z,15.93
2018-06-27T11:38:14.028Z,14.10
2018-06-27T11:40:42.891Z,14.73
2018-06-27T11:43:11.825Z,14.27
2018-06-27T11:45:40.985Z,15.87
2018-06-27T11:48:09.910Z,14.40
2018-06-27T11:50:39.059Z,15.47
2018-06-27T11:53:08.614Z,15.63
2018-06-27T11:55:37.717Z,13.87
2018-06-27T11:58:06.535Z,14.50
2018-06-27T12:00:35.384Z,14.80
2018-06-27T12:03:04.626Z,14.77
2018-06-27T12:05:33.439Z,16.27
2018-06-27T12:08:03.072Z,14.90
2018-06-27T12:10:32.138Z,15.40
2018-06-27T12:13:02.263Z,13.63
2018-06-27T12:15:31.258Z,15.63
2018-06-27T12:18:00.458Z,14.30
2018-06-27T12:20:29.647Z,14.83
2018-06-27T12:22:58.663Z,12.33
2018-06-27T12:25:27.807Z,11.70
2018-06-27T12:27:56.545Z,13.40
2018-06-27T12:30:25.831Z,13.80
2018-06-27T12:32:54.744Z,14.50
2018-06-27T12:35:24.215Z,13.63
2018-06-27T12:37:53.410Z,13.23
2018-06-27T12:40:22.746Z,11.50
2018-06-27T12:42:51.517Z,12.23
2018-06-27T12:45:20.565Z,12.53
2018-06-27T12:47:49.503Z,11.67
2018-06-27T12:50:18.986Z,11.13
2018-06-27T12:52:47.972Z,10.43
2018-06-27T12:55:17.367Z,10.90
2018-06-27T12:57:46.142Z,10.10
2018-06-27T13:00:15.222Z,9.23
2018-06-27T13:02:44.079Z,10.43
2018-06-27T13:05:13.359Z,10.60
2018-06-27T13:07:42.496Z,9.70
2018-06-27T13:10:11.594Z,10.97
2018-06-27T13:12:40.994Z,12.80
2018-06-27T13:15:10.031Z,11.00
2018-06-27T13:17:39.173Z,9.80
2018-06-27T13:20:08.119Z,11.13
2018-06-27T13:22:36.908Z,12.87
2018-06-27T13:25:05.778Z,9.90
2018-06-27T13:27:34.644Z,13.10
2018-06-27T13:30:03.491Z,11.73
2018-06-27T13:32:32.587Z,8.97
2018-06-27T13:35:02.014Z,10.80
2018-06-27T13:37:31.174Z,9.60
2018-06-27T13:39:59.982Z,8.97
2018-06-27T13:42:28.843Z,11.30
2018-06-27T13:44:58.442Z,10.43
2018-06-27T13:47:27.507Z,10.20
2018-06-27T13:49:56.628Z,9.07
2018-06-27T13:52:26.032Z,9.30
2018-06-27T13:54:56.500Z,9.63
2018-06-27T13:57:26.445Z,8.93
2018-06-27T13:59:55.520Z,11.70
2018-06-27T14:02:24.503Z,9.60
2018-06-27T14:04:53.621Z,10.07
2018-06-27T14:07:22.422Z,11.67
2018-06-27T14:09:51.366Z,10.63
2018-06-27T14:12:20.143Z,9.80
2018-06-27T14:14:49.188Z,10.83
2018-06-27T14:17:18.032Z,10.23
2018-06-27T14:19:47.390Z,8.23
2018-06-27T14:22:16.235Z,8.90
2018-06-27T14:24:45.586Z,8.60
2018-06-27T14:27:14.417Z,8.70
2018-06-27T14:29:43.174Z,9.47
2018-06-27T14:32:12.021Z,8.17
2018-06-27T14:34:41.352Z,7.67
2018-06-27T14:37:10.145Z,8.03
2018-06-27T14:39:39.276Z,6.90
2018-06-27T14:42:08.047Z,6.50
2018-06-27T14:44:37.108Z,6.00
2018-06-27T14:47:05.927Z,7.67
2018-06-27T14:49:34.694Z,4.80
2018-06-27T14:52:03.577Z,5.73
2018-06-27T14:54:32.965Z,6.23
2018-06-27T14:57:02.424Z,6.10
2018-06-27T14:59:31.566Z,6.20
2018-06-27T15:02:00.316Z,7.00
2018-06-27T15:04:29.340Z,5.93
2018-06-27T15:06:58.435Z,6.20
2018-06-27T15:09:27.941Z,4.63
2018-06-27T15:11:56.709Z,4.40
2018-06-27T15:14:25.574Z,4.60
2018-06-27T15:16:54.772Z,5.20
2018-06-27T15:19:23.712Z,6.60
2018-06-27T15:21:53.500Z,8.07
2018-06-27T15:24:22.608Z,7.50
2018-06-27T15:26:51.619Z,8.57
2018-06-27T15:29:20.641Z,7.07
2018-06-27T15:31:50.328Z,6.50
2018-06-27T15:34:19.300Z,6.03
2018-06-27T15:36:48.349Z,8.40
2018-06-27T15:39:17.687Z,8.20
2018-06-27T15:41:46.956Z,9.50
2018-06-27T15:44:16.221Z,8.13
2018-06-27T15:46:45.363Z,9.40
2018-06-27T15:49:15.009Z,8.40
2018-06-27T15:51:44.058Z,7.27
2018-06-27T15:54:12.840Z,7.80
2018-06-27T15:56:41.631Z,8.00
2018-06-27T15:59:10.592Z,7.23
2018-06-27T16:01:39.593Z,7.90
2018-06-27T16:04:08.888Z,7.57
2018-06-27T16:06:37.790Z,7.60
2018-06-27T16:09:08.492Z,6.63
2018-06-27T16:11:37.367Z,6.90
2018-06-27T16:14:06.711Z,7.40
2018-06-27T16:16:35.769Z,7.10
2018-06-27T16:19:04.600Z,7.30
2018-06-27T16:21:33.958Z,6.90
2018-06-27T16:24:03.273Z,5.43
2018-06-27T16:26:32.263Z,5.43
2018-06-27T16:29:01.248Z,5.20
2018-06-27T16:31:30.096Z,5.67
2018-06-27T16:33:58.969Z,4.53
2018-06-27T16:36:28.252Z,6.00
2018-06-27T16:38:57.450Z,3.20
2018-06-27T16:41:26.807Z,3.07
2018-06-27T16:43:55.606Z,4.60
2018-06-27T16:46:25.075Z,3.20
2018-06-27T16:48:54.233Z,3.67
2018-06-27T16:51:23.414Z,2.97
2018-06-27T16:53:52.686Z,4.03
2018-06-27T16:56:21.958Z,3.30
2018-06-27T16:58:50.835Z,2.73
2018-06-27T17:01:20.365Z,3.30
2018-06-27T17:03:49.595Z,3.70
2018-06-27T17:06:18.806Z,3.43
2018-06-27T17:08:48.073Z,2.90
2018-06-27T17:11:17.462Z,3.30
2018-06-27T17:13:46.825Z,3.13
2018-06-27T17:16:15.807Z,3.90
2018-06-27T17:18:45.223Z,4.50
2018-06-27T17:21:15.190Z,4.60
2018-06-27T17:23:44.147Z,5.00
2018-06-27T17:26:13.333Z,5.33
2018-06-27T17:28:42.811Z,4.90
2018-06-27T17:31:12.310Z,4.60
2018-06-27T17:33:41.213Z,5.30
2018-06-27T17:36:10.015Z,4.57
2018-06-27T17:38:38.768Z,4.40
2018-06-27T17:41:08.212Z,5.97
2018-06-27T17:43:37.420Z,4.67
2018-06-27T17:46:06.529Z,4.20
2018-06-27T17:48:35.285Z,5.03
2018-06-27T17:51:04.574Z,4.90
2018-06-27T17:53:34.991Z,5.00
2018-06-27T17:56:03.817Z,5.17
2018-06-27T17:58:32.996Z,4.70
2018-06-27T18:01:02.158Z,5.57
2018-06-27T18:03:32.471Z,4.40
2018-06-27T18:06:01.295Z,5.40
2018-06-27T18:08:30.025Z,4.67
2018-06-27T18:10:59.177Z,5.17
2018-06-27T18:13:28.016Z,6.07
2018-06-27T18:15:56.982Z,5.03
2018-06-27T18:18:25.955Z,4.40
2018-06-27T18:20:55.642Z,5.20
2018-06-27T18:23:24.832Z,5.70
2018-06-27T18:25:53.905Z,5.03
2018-06-27T18:28:23.336Z,5.53
2018-06-27T18:30:52.172Z,5.30
2018-06-27T18:33:21.105Z,5.57
2018-06-27T18:35:49.854Z,6.37
2018-06-27T18:38:19.634Z,6.13
2018-06-27T18:40:49.345Z,5.47
2018-06-27T18:43:18.142Z,6.00
2018-06-27T18:45:46.829Z,5.20
2018-06-27T18:48:15.840Z,5.60
2018-06-27T18:50:44.575Z,6.60
2018-06-27T18:53:13.614Z,6.07
2018-06-27T18:55:42.978Z,6.20
2018-06-27T18:58:12.031Z,5.33
2018-06-27T19:00:41.406Z,5.60
2018-06-27T19:03:10.460Z,5.33
2018-06-27T19:05:39.372Z,4.90
2018-06-27T19:08:08.431Z,5.60
2018-06-27T19:10:37.139Z,4.33
2018-06-27T19:13:06.256Z,4.90
2018-06-27T19:15:35.286Z,4.33
2018-06-27T19:18:04.426Z,4.73
2018-06-27T19:20:33.417Z,4.00
2018-06-27T19:23:02.175Z,4.83
2018-06-27T19:25:31.824Z,4.70
2018-06-27T19:28:00.876Z,4.83
2018-06-27T19:30:29.869Z,4.27
2018-06-27T19:32:58.883Z,4.20
2018-06-27T19:35:28.135Z,4.27
2018-06-27T19:37:57.408Z,5.10
2018-06-27T19:40:26.660Z,4.40
2018-06-27T19:45:49.094Z,4.57
2018-06-27T19:48:18.128Z,4.30
2018-06-27T19:50:47.075Z,4.73
2018-06-27T19:53:16.141Z,3.90
2018-06-27T19:55:45.191Z,4.10
2018-06-27T19:58:13.908Z,4.90
2018-06-27T20:00:42.647Z,4.13
2018-06-27T20:03:11.764Z,5.90
2018-06-27T20:05:41.009Z,4.20
2018-06-27T20:08:09.814Z,5.23
2018-06-27T20:10:39.110Z,4.20
2018-06-27T20:13:07.834Z,3.80
2018-06-27T20:15:37.181Z,5.33
2018-06-27T20:18:06.368Z,5.20
2018-06-27T20:20:35.408Z,4.70
2018-06-27T20:23:04.167Z,4.93
2018-06-27T20:25:32.917Z,4.70
2018-06-27T20:28:01.617Z,4.83
2018-06-27T20:30:30.909Z,4.80
2018-06-27T20:32:59.961Z,5.70
2018-06-27T20:35:29.019Z,4.57
2018-06-27T20:37:57.714Z,5.53
2018-06-27T20:40:26.506Z,5.80
2018-06-27T20:42:55.342Z,5.20
2018-06-27T20:45:24.351Z,5.83
2018-06-27T20:47:53.437Z,5.80
2018-06-27T20:50:22.178Z,6.23
2018-06-27T20:53:05.280Z,6.37
2018-06-27T20:55:34.306Z,7.43
2018-06-27T20:58:03.265Z,6.33
2018-06-27T21:00:32.391Z,6.10
2018-06-27T21:03:07.018Z,5.93
2018-06-27T21:05:35.996Z,6.50
2018-06-27T21:08:05.335Z,6.00
2018-06-27T21:10:34.223Z,5.90
2018-06-27T21:13:03.297Z,7.00
2018-06-27T21:15:32.592Z,7.47
2018-06-27T21:18:01.391Z,7.00
2018-06-27T21:20:30.147Z,6.37
2018-06-27T21:22:58.880Z,6.27
2018-06-27T21:25:28.226Z,6.50
2018-06-27T21:27:57.515Z,8.07
2018-06-27T21:30:26.355Z,7.97
2018-06-27T21:32:55.720Z,7.30
2018-06-27T21:35:24.440Z,9.90
2018-06-27T21:37:53.686Z,7.63
2018-06-27T21:40:22.447Z,8.00
2018-06-27T21:42:52.807Z,9.23
2018-06-27T21:45:21.848Z,8.70
2018-06-27T21:47:50.585Z,9.43
2018-06-27T21:50:19.389Z,10.13
2018-06-27T21:52:48.095Z,11.10
2018-06-27T21:55:17.171Z,9.50
2018-06-27T21:57:46.245Z,10.40
2018-06-27T22:00:15.907Z,9.90
2018-06-27T22:02:45.145Z,9.20
2018-06-27T22:05:14.424Z,10.30
2018-06-27T22:07:43.939Z,10.67
2018-06-27T22:10:12.926Z,9.70
2018-06-27T22:12:42.273Z,10.33
2018-06-27T22:15:11.375Z,9.47
2018-06-27T22:17:40.957Z,10.47
2018-06-27T22:20:09.683Z,10.90
2018-06-27T22:22:39.004Z,11.20
2018-06-27T22:25:07.737Z,9.90
2018-06-27T22:27:36.503Z,10.50
2018-06-27T22:30:05.364Z,10.23
2018-06-27T22:32:34.909Z,10.20
2018-06-27T22:35:04.052Z,11.27
2018-06-27T22:37:32.940Z,10.97
2018-06-27T22:40:01.983Z,10.50
2018-06-27T22:42:30.810Z,10.60
2018-06-27T22:44:59.885Z,11.90
2018-06-27T22:47:29.257Z,11.87
2018-06-27T22:49:58.307Z,11.90
2018-06-27T22:52:27.622Z,10.87
2018-06-27T22:54:56.591Z,12.47
2018-06-27T22:57:25.603Z,12.03
2018-06-27T22:59:54.533Z,11.07
2018-06-27T23:02:23.268Z,11.17
2018-06-27T23:04:52.066Z,11.20
2018-06-27T23:07:21.123Z,10.47
2018-06-27T23:09:50.450Z,12.03
2018-06-27T23:12:19.510Z,11.50
2018-06-27T23:14:48.235Z,10.70
2018-06-27T23:17:17.017Z,10.50
2018-06-27T23:19:46.049Z,10.67
2018-06-27T23:22:26.180Z,14.17
2018-06-27T23:24:55.270Z,13.07
2018-06-27T23:27:24.410Z,11.17
2018-06-27T23:29:53.223Z,10.30
2018-06-27T23:32:22.234Z,11.17
2018-06-27T23:34:51.164Z,12.20
2018-06-27T23:37:19.948Z,11.60
2018-06-27T23:39:48.658Z,11.80
2018-06-27T23:42:17.379Z,11.03
2018-06-27T23:44:46.434Z,12.30
2018-06-27T23:47:15.388Z,11.50
2018-06-27T23:49:44.736Z,11.80
2018-06-27T23:52:13.775Z,13.50
2018-06-27T23:54:42.823Z,12.10
2018-06-27T23:57:11.915Z,12.00
2018-06-27T23:59:41.020Z,11.77
